createdAt,value
2019-02-21T00:00:49.421Z,22.93
2019-02-21T00:03:19.119Z,22.92
2019-02-21T00:05:48.839Z,22.93
2019-02-21T00:08:18.606Z,22.89
2019-02-21T00:10:48.414Z,22.88
2019-02-21T00:13:18.028Z,22.86
2019-02-21T00:15:47.741Z,22.92
2019-02-21T00:18:17.456Z,22.89
2019-02-21T00:20:47.080Z,22.92
2019-02-21T00:23:16.796Z,22.90
2019-02-21T00:25:46.551Z,22.87
2019-02-21T00:28:16.310Z,22.92
2019-02-21T00:30:46.082Z,22.87
2019-02-21T00:33:15.824Z,22.90
2019-02-21T00:35:45.526Z,22.88
2019-02-21T00:38:15.246Z,22.88
2019-02-21T00:40:44.875Z,22.88
2019-02-21T00:43:14.568Z,22.87
2019-02-21T00:45:44.265Z,22.89
2019-02-21T00:48:13.929Z,22.86
2019-02-21T00:50:43.695Z,22.84
2019-02-21T00:53:13.535Z,22.86
2019-02-21T00:55:43.635Z,22.85
2019-02-21T00:58:13.347Z,22.83
2019-02-21T01:00:46.542Z,22.85
2019-02-21T01:03:14.397Z,22.87
2019-02-21T01:05:44.106Z,22.84
2019-02-21T01:08:13.825Z,22.86
2019-02-21T01:10:43.530Z,22.82
2019-02-21T01:13:13.248Z,22.83
2019-02-21T01:15:42.947Z,22.83
2019-02-21T01:18:12.607Z,22.82
2019-02-21T01:20:42.271Z,22.84
2019-02-21T01:23:11.911Z,22.85
2019-02-21T01:25:41.648Z,22.85
2019-02-21T01:28:11.224Z,22.83
2019-02-21T01:30:40.916Z,22.84
2019-02-21T01:33:10.697Z,22.83
2019-02-21T01:35:40.606Z,22.88
2019-02-21T01:38:10.283Z,22.88
2019-02-21T01:40:39.967Z,22.85
2019-02-21T01:43:09.671Z,22.89
2019-02-21T01:45:39.411Z,22.86
2019-02-21T01:48:09.194Z,22.86
2019-02-21T01:50:38.881Z,22.87
2019-02-21T01:53:08.717Z,22.84
2019-02-21T01:55:38.368Z,22.85
2019-02-21T01:58:08.254Z,22.82
2019-02-21T02:00:37.897Z,22.82
2019-02-21T02:03:07.671Z,22.82
2019-02-21T02:05:37.294Z,22.83
2019-02-21T02:08:07.404Z,22.83
2019-02-21T02:10:37.139Z,22.81
2019-02-21T02:13:06.831Z,22.83
2019-02-21T02:15:36.466Z,22.81
2019-02-21T02:18:06.132Z,22.79
2019-02-21T02:20:35.771Z,22.82
2019-02-21T02:23:05.715Z,22.85
2019-02-21T02:25:35.361Z,22.85
2019-02-21T02:28:05.075Z,22.82
2019-02-21T02:30:34.880Z,22.82
2019-02-21T02:33:04.604Z,22.80
2019-02-21T02:35:34.327Z,22.81
2019-02-21T02:38:04.131Z,22.80
2019-02-21T02:40:33.773Z,22.82
2019-02-21T02:43:03.456Z,22.79
2019-02-21T02:45:33.096Z,22.80
2019-02-21T02:48:02.771Z,22.80
2019-02-21T02:50:32.479Z,22.80
2019-02-21T02:53:02.245Z,22.80
2019-02-21T02:55:31.893Z,22.77
2019-02-21T02:58:01.533Z,22.76
2019-02-21T03:00:31.234Z,22.78
2019-02-21T03:03:00.870Z,22.77
2019-02-21T03:05:30.640Z,22.79
2019-02-21T03:08:00.393Z,22.82
2019-02-21T03:10:30.071Z,22.78
2019-02-21T03:12:59.829Z,22.80
2019-02-21T03:15:29.593Z,22.82
2019-02-21T03:17:59.334Z,22.82
2019-02-21T03:20:29.024Z,22.81
2019-02-21T03:22:58.728Z,22.79
2019-02-21T03:25:28.465Z,22.82
2019-02-21T03:27:58.149Z,22.80
2019-02-21T03:30:27.837Z,22.81
2019-02-21T03:32:57.542Z,22.78
2019-02-21T03:35:27.205Z,22.78
2019-02-21T03:37:56.902Z,22.77
2019-02-21T03:40:26.632Z,22.74
2019-02-21T03:42:56.233Z,22.76
2019-02-21T03:45:25.923Z,22.74
2019-02-21T03:47:55.656Z,22.75
2019-02-21T03:50:25.353Z,22.76
2019-02-21T03:52:54.966Z,22.74
2019-02-21T03:55:24.766Z,22.75
2019-02-21T03:57:54.464Z,22.75
2019-02-21T04:00:24.188Z,22.76
2019-02-21T04:02:53.810Z,22.76
2019-02-21T04:05:23.535Z,22.75
2019-02-21T04:07:53.330Z,22.77
2019-02-21T04:10:23.064Z,22.77
2019-02-21T04:12:52.836Z,22.77
2019-02-21T04:15:22.552Z,22.75
2019-02-21T04:17:52.263Z,22.78
2019-02-21T04:20:21.908Z,22.77
2019-02-21T04:22:51.582Z,22.77
2019-02-21T04:25:21.394Z,22.75
2019-02-21T04:27:51.101Z,22.76
2019-02-21T04:30:20.850Z,22.79
2019-02-21T04:32:50.483Z,22.76
2019-02-21T04:35:20.232Z,22.76
2019-02-21T04:37:49.896Z,22.83
2019-02-21T04:40:19.549Z,22.81
2019-02-21T04:42:49.194Z,22.77
2019-02-21T04:45:18.946Z,22.77
2019-02-21T04:47:48.815Z,22.81
2019-02-21T04:50:18.602Z,22.81
2019-02-21T04:52:48.323Z,22.80
2019-02-21T04:55:18.405Z,22.79
2019-02-21T04:57:48.481Z,22.78
2019-02-21T05:00:18.376Z,22.79
2019-02-21T05:02:48.056Z,22.75
2019-02-21T05:05:18.642Z,22.75
2019-02-21T05:07:48.322Z,22.64
2019-02-21T05:12:46.431Z,22.52
2019-02-21T05:15:16.239Z,22.53
2019-02-21T05:17:46.037Z,22.44
2019-02-21T05:20:15.657Z,22.46
2019-02-21T05:22:45.359Z,22.44
2019-02-21T05:25:15.113Z,22.47
2019-02-21T05:27:49.889Z,22.44
2019-02-21T05:30:23.034Z,22.50
2019-02-21T05:33:01.413Z,22.44
2019-02-21T05:35:49.918Z,22.39
2019-02-21T05:38:43.691Z,22.37
2019-02-21T05:41:38.649Z,22.34
2019-02-21T05:44:17.942Z,22.36
2019-02-21T05:47:09.215Z,22.35
2019-02-21T05:49:46.885Z,22.37
2019-02-21T05:52:24.112Z,22.32
2019-02-21T05:55:18.571Z,22.33
2019-02-21T05:58:22.477Z,22.38
2019-02-21T06:01:13.691Z,22.45
2019-02-21T06:04:02.186Z,22.49
2019-02-21T06:06:50.927Z,22.55
2019-02-21T06:09:39.481Z,22.70
2019-02-21T06:12:33.667Z,22.70
2019-02-21T06:15:06.868Z,22.70
2019-02-21T06:18:01.596Z,22.73
2019-02-21T06:20:44.687Z,22.79
2019-02-21T06:23:33.242Z,22.79
2019-02-21T06:26:09.970Z,22.88
2019-02-21T06:28:57.272Z,22.89
2019-02-21T06:31:27.111Z,22.87
2019-02-21T06:33:56.746Z,22.87
2019-02-21T06:36:26.430Z,22.86
2019-02-21T06:38:56.074Z,22.83
2019-02-21T06:41:25.759Z,22.80
2019-02-21T06:43:56.913Z,22.80
2019-02-21T06:46:26.622Z,22.81
2019-02-21T06:48:56.369Z,22.82
2019-02-21T06:51:25.970Z,22.82
2019-02-21T06:53:55.646Z,22.82
2019-02-21T06:56:25.349Z,22.80
2019-02-21T06:58:55.118Z,22.78
2019-02-21T07:01:29.073Z,22.79
2019-02-21T07:03:56.232Z,22.85
2019-02-21T07:06:32.071Z,22.79
2019-02-21T07:08:59.720Z,22.80
2019-02-21T07:11:28.756Z,22.79
2019-02-21T07:13:58.543Z,22.76
2019-02-21T07:16:28.480Z,22.77
2019-02-21T07:18:58.171Z,22.78
2019-02-21T07:21:27.836Z,22.79
2019-02-21T07:23:57.490Z,22.79
2019-02-21T07:26:27.247Z,22.78
2019-02-21T07:28:58.345Z,22.77
2019-02-21T07:31:29.677Z,22.73
2019-02-21T07:34:01.672Z,22.76
2019-02-21T07:36:30.996Z,22.74
2019-02-21T07:39:13.872Z,22.74
2019-02-21T07:41:32.148Z,22.74
2019-02-21T07:44:11.752Z,22.74
2019-02-21T07:46:33.302Z,22.77
2019-02-21T07:49:03.104Z,22.77
2019-02-21T07:51:32.744Z,22.76
2019-02-21T07:54:02.434Z,22.74
2019-02-21T07:56:41.530Z,22.75
2019-02-21T07:59:03.580Z,22.75
2019-02-21T08:01:33.323Z,22.80
2019-02-21T08:04:03.039Z,22.79
2019-02-21T08:06:32.836Z,22.79
2019-02-21T08:09:02.608Z,22.81
2019-02-21T08:11:32.379Z,22.81
2019-02-21T08:14:02.053Z,22.80
2019-02-21T08:16:31.826Z,22.82
2019-02-21T08:19:01.470Z,22.82
2019-02-21T08:21:31.225Z,22.85
2019-02-21T08:24:01.065Z,22.83
2019-02-21T08:26:30.875Z,22.84
2019-02-21T08:29:00.535Z,22.86
2019-02-21T08:31:30.229Z,22.84
2019-02-21T08:34:06.204Z,22.83
2019-02-21T08:36:46.793Z,22.81
2019-02-21T08:39:16.521Z,22.80
2019-02-21T08:41:46.280Z,22.81
2019-02-21T08:44:16.030Z,22.81
2019-02-21T08:46:45.720Z,22.79
2019-02-21T08:49:15.595Z,22.80
2019-02-21T08:51:45.332Z,22.57
2019-02-21T08:54:15.047Z,22.29
2019-02-21T08:56:44.757Z,22.30
2019-02-21T08:59:14.498Z,22.11
2019-02-21T09:01:44.306Z,22.12
2019-02-21T09:04:26.860Z,21.96
2019-02-21T09:06:45.438Z,21.97
2019-02-21T09:09:15.152Z,21.94
2019-02-21T09:11:44.867Z,21.93
2019-02-21T09:14:14.527Z,22.01
2019-02-21T09:16:44.396Z,22.06
2019-02-21T09:19:14.027Z,22.10
2019-02-21T09:21:43.713Z,22.14
2019-02-21T09:24:13.973Z,22.13
2019-02-21T09:26:44.768Z,22.22
2019-02-21T09:29:14.406Z,22.22
2019-02-21T09:31:44.094Z,22.26
2019-02-21T09:34:20.837Z,22.25
2019-02-21T09:36:45.060Z,22.37
2019-02-21T09:39:16.050Z,22.45
2019-02-21T09:41:46.037Z,22.49
2019-02-21T09:44:18.149Z,22.53
2019-02-21T09:46:49.855Z,22.52
2019-02-21T09:49:20.050Z,22.51
2019-02-21T09:51:50.337Z,22.47
2019-02-21T09:54:19.910Z,22.35
2019-02-21T09:56:52.803Z,22.23
2019-02-21T09:59:21.472Z,22.16
2019-02-21T10:01:51.167Z,22.11
2019-02-21T10:04:31.626Z,22.11
2019-02-21T10:06:52.336Z,22.07
2019-02-21T10:09:22.048Z,22.07
2019-02-21T10:11:51.683Z,22.06
2019-02-21T10:14:21.677Z,22.28
2019-02-21T10:16:51.315Z,22.41
2019-02-21T10:19:21.053Z,22.49
2019-02-21T10:21:50.789Z,22.61
2019-02-21T10:24:20.600Z,22.67
2019-02-21T10:26:50.135Z,22.75
2019-02-21T10:29:19.852Z,22.83
2019-02-21T10:31:49.543Z,22.80
2019-02-21T10:34:21.741Z,22.88
2019-02-21T10:36:50.608Z,22.87
2019-02-21T10:39:20.250Z,22.80
2019-02-21T10:41:50.017Z,22.79
2019-02-21T10:44:19.658Z,22.82
2019-02-21T10:46:49.337Z,22.79
2019-02-21T10:49:19.086Z,22.75
2019-02-21T10:51:48.858Z,22.72
2019-02-21T10:54:18.670Z,22.72
2019-02-21T10:56:48.486Z,22.73
2019-02-21T10:59:18.115Z,22.72
2019-02-21T11:01:47.913Z,22.73
2019-02-21T11:04:17.620Z,22.74
2019-02-21T11:06:47.492Z,22.74
2019-02-21T11:09:21.958Z,22.75
2019-02-21T11:11:51.667Z,22.75
2019-02-21T11:14:21.451Z,22.71
2019-02-21T11:16:51.296Z,22.75
2019-02-21T11:19:21.035Z,22.73
2019-02-21T11:21:50.798Z,22.74
2019-02-21T11:24:20.932Z,22.77
2019-02-21T11:26:50.668Z,22.74
2019-02-21T11:29:20.384Z,22.78
2019-02-21T11:31:50.075Z,22.78
2019-02-21T11:34:19.844Z,22.81
2019-02-21T11:36:49.606Z,22.81
2019-02-21T11:39:19.412Z,22.86
2019-02-21T11:41:49.360Z,22.86
2019-02-21T11:44:19.034Z,22.87
2019-02-21T11:46:48.849Z,22.89
2019-02-21T11:49:18.561Z,22.93
2019-02-21T11:51:48.498Z,22.94
2019-02-21T11:54:26.514Z,22.93
2019-02-21T11:56:49.660Z,22.92
2019-02-21T11:59:19.498Z,22.95
2019-02-21T12:01:49.290Z,22.95
2019-02-21T12:04:18.998Z,22.96
2019-02-21T12:06:48.692Z,23.02
2019-02-21T12:09:18.414Z,23.00
2019-02-21T12:11:48.239Z,22.98
2019-02-21T12:14:17.971Z,23.02
2019-02-21T12:16:47.732Z,23.00
2019-02-21T12:19:18.095Z,23.06
2019-02-21T12:21:58.427Z,23.05
2019-02-21T12:24:19.349Z,23.08
2019-02-21T12:26:49.043Z,23.08
2019-02-21T12:29:18.569Z,23.11
2019-02-21T12:31:48.358Z,23.08
2019-02-21T12:34:18.263Z,23.11
2019-02-21T12:36:48.201Z,23.10
2019-02-21T12:39:17.904Z,23.08
2019-02-21T12:41:47.613Z,23.10
2019-02-21T12:44:17.301Z,23.16
2019-02-21T12:46:46.960Z,23.11
2019-02-21T12:49:16.831Z,23.14
2019-02-21T12:51:46.477Z,23.15
2019-02-21T12:54:16.105Z,23.14
2019-02-21T12:56:45.782Z,23.18
2019-02-21T12:59:15.420Z,23.18
2019-02-21T13:01:45.093Z,23.24
2019-02-21T13:04:14.952Z,23.26
2019-02-21T13:06:44.557Z,23.22
2019-02-21T13:09:14.435Z,23.21
2019-02-21T13:11:44.137Z,23.17
2019-02-21T13:14:13.896Z,23.21
2019-02-21T13:16:43.470Z,23.26
2019-02-21T13:19:13.170Z,23.31
2019-02-21T13:21:42.886Z,23.28
2019-02-21T13:24:12.684Z,23.30
2019-02-21T13:26:42.375Z,23.28
2019-02-21T13:29:12.133Z,23.25
2019-02-21T13:31:41.770Z,23.29
2019-02-21T13:34:11.443Z,23.29
2019-02-21T13:36:41.177Z,23.35
2019-02-21T13:39:10.781Z,23.38
2019-02-21T13:41:40.509Z,23.28
2019-02-21T13:44:10.157Z,23.10
2019-02-21T13:46:41.155Z,23.01
2019-02-21T13:49:11.263Z,23.11
2019-02-21T13:51:40.956Z,22.96
2019-02-21T13:54:10.762Z,22.96
2019-02-21T13:56:40.593Z,22.78
2019-02-21T13:59:10.299Z,22.79
2019-02-21T14:01:40.158Z,22.66
2019-02-21T14:04:09.911Z,22.63
2019-02-21T14:06:39.639Z,22.63
2019-02-21T14:09:09.252Z,22.49
2019-02-21T14:11:38.875Z,22.64
2019-02-21T14:14:08.595Z,22.38
2019-02-21T14:16:46.205Z,22.70
2019-02-21T14:19:09.742Z,22.85
2019-02-21T14:21:39.435Z,22.94
2019-02-21T14:24:09.241Z,22.98
2019-02-21T14:26:38.901Z,23.08
2019-02-21T14:29:08.565Z,23.09
2019-02-21T14:31:38.490Z,23.05
2019-02-21T14:34:08.189Z,23.05
2019-02-21T14:36:37.819Z,23.11
2019-02-21T14:39:10.512Z,23.19
2019-02-21T14:41:39.989Z,23.18
2019-02-21T14:44:09.614Z,23.27
2019-02-21T14:46:39.361Z,23.26
2019-02-21T14:49:09.009Z,23.31
2019-02-21T14:51:38.822Z,23.32
2019-02-21T14:54:08.590Z,23.32
2019-02-21T14:56:38.367Z,23.31
2019-02-21T14:59:08.056Z,23.35
2019-02-21T15:01:37.773Z,23.39
2019-02-21T15:04:07.483Z,23.45
2019-02-21T15:06:37.125Z,23.48
2019-02-21T15:09:07.357Z,23.45
2019-02-21T15:11:36.936Z,23.51
2019-02-21T15:14:06.635Z,23.55
2019-02-21T15:16:36.271Z,23.47
2019-02-21T15:19:05.985Z,23.48
2019-02-21T15:21:35.584Z,23.47
2019-02-21T15:24:05.381Z,23.46
2019-02-21T15:26:35.181Z,23.43
2019-02-21T15:29:04.898Z,23.35
2019-02-21T15:31:34.637Z,23.33
2019-02-21T15:34:04.321Z,23.32
2019-02-21T15:36:38.117Z,23.36
2019-02-21T15:39:06.396Z,23.43
2019-02-21T15:41:36.104Z,23.33
2019-02-21T15:44:05.838Z,23.21
2019-02-21T15:46:35.455Z,23.17
2019-02-21T15:49:05.189Z,23.12
2019-02-21T15:51:34.771Z,23.12
2019-02-21T15:54:04.390Z,23.09
2019-02-21T15:56:34.086Z,23.02
2019-02-21T15:59:03.712Z,23.05
2019-02-21T16:01:33.387Z,23.05
2019-02-21T16:04:03.136Z,23.00
2019-02-21T16:06:32.928Z,23.00
2019-02-21T16:09:02.862Z,22.95
2019-02-21T16:11:32.674Z,22.89
2019-02-21T16:14:03.658Z,22.88
2019-02-21T16:16:33.641Z,22.87
2019-02-21T16:19:03.223Z,22.93
2019-02-21T16:21:32.920Z,22.99
2019-02-21T16:24:02.639Z,23.00
2019-02-21T16:26:32.264Z,23.01
2019-02-21T16:29:02.058Z,23.00
2019-02-21T16:31:31.815Z,22.99
2019-02-21T16:34:01.461Z,22.98
2019-02-21T16:36:31.113Z,23.05
2019-02-21T16:39:01.005Z,23.09
2019-02-21T16:41:36.233Z,23.03
2019-02-21T16:44:02.273Z,23.01
2019-02-21T16:46:31.912Z,23.00
2019-02-21T16:49:01.592Z,22.98
2019-02-21T16:51:31.222Z,23.02
2019-02-21T16:54:00.909Z,23.05
2019-02-21T16:56:30.549Z,23.07
2019-02-21T16:59:00.258Z,23.03
2019-02-21T17:01:30.097Z,23.08
2019-02-21T17:04:00.022Z,23.08
2019-02-21T17:06:29.709Z,23.06
2019-02-21T17:08:59.372Z,23.04
2019-02-21T17:11:29.086Z,23.01
2019-02-21T17:13:58.730Z,23.04
2019-02-21T17:16:28.518Z,22.99
2019-02-21T17:18:58.369Z,23.05
2019-02-21T17:21:28.127Z,23.04
2019-02-21T17:23:57.790Z,23.04
2019-02-21T17:26:27.445Z,23.10
2019-02-21T17:28:57.104Z,23.13
2019-02-21T17:31:26.769Z,23.13
2019-02-21T17:33:56.478Z,23.12
2019-02-21T17:36:26.119Z,23.09
2019-02-21T17:38:56.002Z,23.10
2019-02-21T17:41:26.858Z,23.09
2019-02-21T17:43:56.576Z,23.11
2019-02-21T17:46:27.629Z,23.05
2019-02-21T17:48:57.235Z,23.06
2019-02-21T17:51:26.724Z,23.11
2019-02-21T17:53:56.445Z,23.05
2019-02-21T17:56:26.100Z,23.06
2019-02-21T17:58:55.949Z,23.04
2019-02-21T18:01:25.606Z,23.06
2019-02-21T18:03:55.272Z,23.07
2019-02-21T18:06:24.896Z,23.05
2019-02-21T18:08:55.229Z,23.05
2019-02-21T18:11:26.033Z,23.07
2019-02-21T18:13:55.748Z,23.11
2019-02-21T18:16:25.461Z,23.11
2019-02-21T18:18:54.970Z,23.09
2019-02-21T18:21:24.676Z,23.12
2019-02-21T18:23:54.294Z,23.09
2019-02-21T18:26:24.014Z,23.12
2019-02-21T18:28:53.665Z,23.10
2019-02-21T18:31:23.328Z,23.10
2019-02-21T18:33:53.122Z,23.13
2019-02-21T18:36:22.764Z,23.12
2019-02-21T18:38:52.451Z,23.15
2019-02-21T18:41:22.263Z,23.13
2019-02-21T18:43:52.283Z,23.11
2019-02-21T18:46:21.896Z,23.12
2019-02-21T18:48:51.599Z,23.13
2019-02-21T18:51:21.339Z,23.11
2019-02-21T18:53:51.038Z,23.12
2019-02-21T18:56:20.737Z,23.09
2019-02-21T18:58:50.473Z,23.11
2019-02-21T19:01:20.280Z,23.13
2019-02-21T19:03:49.892Z,23.11
2019-02-21T19:06:19.583Z,23.11
2019-02-21T19:08:49.310Z,23.08
2019-02-21T19:11:19.102Z,23.08
2019-02-21T19:13:48.731Z,23.06
2019-02-21T19:16:18.413Z,23.06
2019-02-21T19:18:49.185Z,23.25
2019-02-21T19:21:19.111Z,23.18
2019-02-21T19:23:48.824Z,23.12
2019-02-21T19:26:18.651Z,23.11
2019-02-21T19:28:48.306Z,23.06
2019-02-21T19:31:19.922Z,23.07
2019-02-21T19:33:49.680Z,23.03
2019-02-21T19:36:19.317Z,23.06
2019-02-21T19:38:49.009Z,23.06
2019-02-21T19:41:18.795Z,23.08
2019-02-21T19:43:48.617Z,23.09
2019-02-21T19:46:18.419Z,23.17
2019-02-21T19:48:48.188Z,23.14
2019-02-21T19:51:17.873Z,23.12
2019-02-21T19:53:48.379Z,23.17
2019-02-21T19:56:18.298Z,23.19
2019-02-21T19:58:47.938Z,23.32
2019-02-21T20:01:17.727Z,23.29
2019-02-21T20:03:47.298Z,23.32
2019-02-21T20:06:17.044Z,23.34
2019-02-21T20:08:46.818Z,23.34
2019-02-21T20:11:16.565Z,23.35
2019-02-21T20:13:46.552Z,23.31
2019-02-21T20:16:16.389Z,23.31
2019-02-21T20:18:46.028Z,23.28
2019-02-21T20:21:15.625Z,23.28
2019-02-21T20:23:45.966Z,23.25
2019-02-21T20:26:18.456Z,23.25
2019-02-21T20:28:47.133Z,23.19
2019-02-21T20:31:16.807Z,23.21
2019-02-21T20:33:46.561Z,23.21
2019-02-21T20:36:16.232Z,23.20
2019-02-21T20:38:45.897Z,23.20
2019-02-21T20:41:15.563Z,23.21
2019-02-21T20:43:45.262Z,23.20
2019-02-21T20:46:14.969Z,23.17
2019-02-21T20:48:44.795Z,23.25
2019-02-21T20:51:14.491Z,23.26
2019-02-21T20:53:44.210Z,23.22
2019-02-21T20:56:13.840Z,23.21
2019-02-21T20:58:43.536Z,23.22
2019-02-21T21:01:13.433Z,23.22
2019-02-21T21:03:43.158Z,23.16
2019-02-21T21:06:12.786Z,23.19
2019-02-21T21:08:44.251Z,23.21
2019-02-21T21:11:13.729Z,23.21
2019-02-21T21:13:44.222Z,23.19
2019-02-21T21:16:14.347Z,23.17
2019-02-21T21:18:44.124Z,23.19
2019-02-21T21:21:13.798Z,23.20
2019-02-21T21:23:43.413Z,23.17
2019-02-21T21:26:13.146Z,23.13
2019-02-21T21:28:42.850Z,23.15
2019-02-21T21:31:15.061Z,23.17
2019-02-21T21:33:43.904Z,23.18
2019-02-21T21:36:13.608Z,23.18
2019-02-21T21:38:53.375Z,23.19
2019-02-21T21:41:14.865Z,23.17
2019-02-21T21:43:44.490Z,23.18
2019-02-21T21:46:14.277Z,23.18
2019-02-21T21:48:43.923Z,23.21
2019-02-21T21:51:13.601Z,23.21
2019-02-21T21:53:43.309Z,23.18
2019-02-21T21:56:12.931Z,23.15
2019-02-21T21:58:42.682Z,23.17
2019-02-21T22:01:12.269Z,23.17
2019-02-21T22:03:42.064Z,23.18
2019-02-21T22:06:11.781Z,23.17
2019-02-21T22:08:41.485Z,23.18
2019-02-21T22:11:11.120Z,23.17
2019-02-21T22:13:40.739Z,23.13
2019-02-21T22:16:10.409Z,23.18
2019-02-21T22:18:40.066Z,23.13
2019-02-21T22:21:09.827Z,23.13
2019-02-21T22:23:39.463Z,23.15
2019-02-21T22:26:09.225Z,23.15
2019-02-21T22:28:39.039Z,23.11
2019-02-21T22:31:08.873Z,23.15
2019-02-21T22:33:38.718Z,23.18
2019-02-21T22:36:08.408Z,23.12
2019-02-21T22:38:38.142Z,23.11
2019-02-21T22:41:07.927Z,23.11
2019-02-21T22:43:37.610Z,23.10
2019-02-21T22:46:07.510Z,23.08
2019-02-21T22:48:46.855Z,23.09
2019-02-21T22:51:08.822Z,23.09
2019-02-21T22:53:38.455Z,23.10
2019-02-21T22:56:08.231Z,23.12
2019-02-21T22:58:44.971Z,23.12
2019-02-21T23:01:31.076Z,23.13
2019-02-21T23:04:15.372Z,23.13
2019-02-21T23:07:09.350Z,23.12
2019-02-21T23:09:39.630Z,23.08
2019-02-21T23:12:09.446Z,23.11
2019-02-21T23:14:39.093Z,23.12
2019-02-21T23:17:08.894Z,23.13
2019-02-21T23:19:38.655Z,23.09
2019-02-21T23:22:08.314Z,23.10
2019-02-21T23:24:38.033Z,23.07
2019-02-21T23:27:07.742Z,23.05
2019-02-21T23:29:37.480Z,23.05
2019-02-21T23:32:07.076Z,23.06
2019-02-21T23:34:42.185Z,23.09
2019-02-21T23:37:12.013Z,23.06
2019-02-21T23:39:41.633Z,23.07
2019-02-21T23:42:11.390Z,23.03
2019-02-21T23:44:41.137Z,23.05
2019-02-21T23:47:10.864Z,23.04
2019-02-21T23:49:40.491Z,23.05
2019-02-21T23:52:10.179Z,23.07
2019-02-21T23:54:39.789Z,23.06
2019-02-21T23:57:09.521Z,23.07
2019-02-21T23:59:39.211Z,23.06
